San Angelo, Texas
Current Conditions -  °F | °C
As of 4:51 AM on Monday 20 Oct 2014 (Local Time) from KSJT Reporting Station
Clear Clear  
Wind Chill: 59°   Ceiling: Unl
Heat Index: 59°   Visibility: 10mi
Dew Point: 55°   Wind: 6mph
Humidity: 87%   Direction: 60°ENE
Pressure: 30.04"   Gusts: NA
Location:  31.46°N, 100.44°W
Report Text: KSJT 200951Z AUTO 06005KT 10SM CLR 15/13 A3004 RMK AO2 SLP156 T01500128
Loading
Personal Weather Stations






























Interactive Weather Map
Tropical Storm Tracking
New forecast layout! Learn more

10-Day Weather Forecast

Advertisements
Track Severe Weather on mobile